Time;durP1;ratioP1;P1;durP2;ratioP2;P2;SDS_P1;SDS_P2;PMS_P1;PMS_P2;Temp;Humidity;BMP_temperature;BMP_pressure;BME280_temperature;BME280_humidity;BME280_pressure;Samples;Min_cycle;Max_cycle;Signal;HPM_P1;HPM_P2
2024/03/12 00:01:10;;;;;;;;;;;23.00;44.70;;;;;;5068682;28;19954;-61
2024/03/12 00:03:42;;;;;;;;;;;;;;;;;;5074400;28;19923;-47
2024/03/12 00:06:11;;;;;;;;;;;23.00;51.90;;;;;;5073292;28;19919;-40
2024/03/12 00:08:39;;;;;;;;;;;23.10;46.50;;;;;;5081008;28;19919;-43
2024/03/12 00:11:05;;;;;;;;;;;23.00;45.00;;;;;;5076127;28;19923;-41
2024/03/12 00:13:31;;;;;;;;;;;23.00;45.10;;;;;;5081499;28;19909;-43
2024/03/12 00:16:00;;;;;;;;;;;22.90;45.20;;;;;;5081341;28;19948;-43
2024/03/12 00:18:26;;;;;;;;;;;22.90;47.00;;;;;;5074895;28;19912;-42
2024/03/12 00:20:56;;;;;;;;;;;;;;;;;;5072039;28;19916;-42
2024/03/12 00:23:22;;;;;;;;;;;23.00;56.20;;;;;;5074476;28;19932;-42
2024/03/12 00:25:48;;;;;;;;;;;23.00;55.90;;;;;;5072659;28;19913;-43
2024/03/12 00:28:14;;;;;;;;;;;22.90;53.20;;;;;;5077412;28;19915;-42
2024/03/12 00:30:44;;;;;;;;;;;22.90;51.10;;;;;;5072522;28;19909;-43
2024/03/12 00:33:10;;;;;;;;;;;22.90;47.80;;;;;;5080282;28;19908;-43
2024/03/12 00:35:38;;;;;;;;;;;22.90;46.90;;;;;;5066908;28;19974;-42
2024/03/12 00:38:05;;;;;;;;;;;22.90;46.90;;;;;;5067396;28;20658;-42
2024/03/12 00:40:33;;;;;;;;;;;22.80;46.50;;;;;;5078140;28;20002;-47
2024/03/12 00:43:00;;;;;;;;;;;22.90;46.40;;;;;;5073933;28;19960;-43
2024/03/12 00:45:29;;;;;;;;;;;22.90;46.40;;;;;;5080268;28;19921;-45
2024/03/12 00:47:57;;;;;;;;;;;22.90;46.70;;;;;;5080549;28;19912;-45
2024/03/12 00:50:23;;;;;;;;;;;22.90;46.60;;;;;;5081557;28;19918;-45
2024/03/12 00:52:53;;;;;;;;;;;22.80;47.90;;;;;;5079072;28;19916;-45
2024/03/12 00:55:23;;;;;;;;;;;22.80;50.30;;;;;;5081214;28;19912;-51
2024/03/12 00:57:50;;;;;;;;;;;22.80;53.40;;;;;;5080237;28;19913;-42
2024/03/12 01:00:17;;;;;;;;;;;22.80;52.10;;;;;;5081282;28;19908;-47
2024/03/12 01:02:48;;;;;;;;;;;22.80;52.30;;;;;;5079808;28;19908;-44
2024/03/12 01:05:18;;;;;;;;;;;22.80;52.00;;;;;;5074109;28;20086;-43
2024/03/12 01:07:45;;;;;;;;;;;22.80;51.90;;;;;;5071908;28;20463;-41
2024/03/12 01:10:11;;;;;;;;;;;22.80;52.00;;;;;;5076332;28;19919;-47
2024/03/12 01:12:39;;;;;;;;;;;22.80;52.10;;;;;;5066920;28;19915;-43
2024/03/12 01:15:08;;;;;;;;;;;22.70;52.10;;;;;;5065619;28;19913;-43
2024/03/12 01:17:37;;;;;;;;;;;22.70;52.20;;;;;;5064047;28;19916;-43
2024/03/12 01:20:08;;;;;;;;;;;22.70;52.50;;;;;;5080397;28;19912;-43
2024/03/12 01:22:38;;;;;;;;;;;22.70;52.90;;;;;;5069446;28;19948;-44
2024/03/12 01:25:05;;;;;;;;;;;22.80;52.00;;;;;;5072214;28;19920;-42
2024/03/12 01:27:33;;;;;;;;;;;22.70;49.80;;;;;;5074288;28;19909;-43
2024/03/12 01:30:00;;;;;;;;;;;22.70;48.50;;;;;;5066878;28;19912;-45
2024/03/12 01:32:26;;;;;;;;;;;22.70;47.80;;;;;;5074531;28;19975;-44
2024/03/12 01:34:52;;;;;;;;;;;22.70;47.40;;;;;;5082940;28;19924;-47
2024/03/12 01:37:24;;;;;;;;;;;22.70;47.20;;;;;;5079031;28;19971;-44
2024/03/12 01:39:52;;;;;;;;;;;22.70;48.00;;;;;;5072363;28;20368;-46
2024/03/12 01:42:21;;;;;;;;;;;22.70;48.80;;;;;;5068602;28;19931;-43
2024/03/12 01:44:50;;;;;;;;;;;22.70;49.90;;;;;;5065926;28;20392;-44
2024/03/12 01:47:17;;;;;;;;;;;22.60;51.20;;;;;;5071882;28;19908;-44
2024/03/12 01:49:44;;;;;;;;;;;22.60;52.60;;;;;;5076315;28;19915;-43
2024/03/12 01:52:10;;;;;;;;;;;22.60;54.40;;;;;;5075378;28;19913;-45
2024/03/12 01:54:37;;;;;;;;;;;22.60;57.40;;;;;;5082849;28;19974;-47
2024/03/12 01:57:03;;;;;;;;;;;22.60;62.80;;;;;;5074745;28;19913;-45
2024/03/12 01:59:29;;;;;;;;;;;22.70;74.80;;;;;;5074488;28;19916;-44
2024/03/12 02:01:59;;;;;;;;;;;22.70;75.50;;;;;;5066077;28;19912;-46
2024/03/12 02:04:26;;;;;;;;;;;22.60;78.70;;;;;;5068037;28;19917;-42
2024/03/12 02:06:52;;;;;;;;;;;22.60;79.30;;;;;;5075453;28;19912;-44
2024/03/12 02:09:21;;;;;;;;;;;22.50;81.90;;;;;;5081539;28;20023;-44
2024/03/12 02:11:47;;;;;;;;;;;22.50;81.10;;;;;;5081515;28;19930;-45
2024/03/12 02:14:16;;;;;;;;;;;22.60;80.40;;;;;;5067200;28;19981;-47
2024/03/12 02:16:42;;;;;;;;;;;22.60;83.10;;;;;;5076823;28;19923;-43
2024/03/12 02:19:09;;;;;;;;;;;;;;;;;;5084556;28;19920;-46
2024/03/12 02:21:35;;;;;;;;;;;;;;;;;;5084020;28;19920;-43
2024/03/12 02:24:01;;;;;;;;;;;;;;;;;;5081347;28;19920;-45
2024/03/12 02:26:27;;;;;;;;;;;;;;;;;;5075358;28;19916;-44
2024/03/12 02:28:53;;;;;;;;;;;22.70;59.30;;;;;;5081536;28;19916;-43
2024/03/12 02:31:20;;;;;;;;;;;22.70;57.30;;;;;;5074461;28;19956;-45
2024/03/12 02:33:46;;;;;;;;;;;22.60;56.90;;;;;;5081684;28;19908;-44
2024/03/12 02:36:12;;;;;;;;;;;22.60;56.90;;;;;;5079341;28;19991;-44
2024/03/12 02:38:38;;;;;;;;;;;22.60;56.50;;;;;;5078209;28;19925;-45
2024/03/12 02:41:09;;;;;;;;;;;22.50;55.60;;;;;;5071500;28;19908;-43
2024/03/12 02:43:36;;;;;;;;;;;22.40;55.30;;;;;;5076387;28;19927;-43
2024/03/12 02:46:03;;;;;;;;;;;22.50;48.90;;;;;;5078639;28;19935;-44
2024/03/12 02:48:29;;;;;;;;;;;22.50;48.80;;;;;;5072485;28;19912;-47
2024/03/12 02:50:56;;;;;;;;;;;22.50;48.30;;;;;;5081292;28;20345;-43
2024/03/12 02:53:22;;;;;;;;;;;22.50;48.00;;;;;;5079154;28;19916;-44
2024/03/12 02:55:48;;;;;;;;;;;22.40;47.70;;;;;;5080317;28;19912;-45
2024/03/12 02:58:15;;;;;;;;;;;22.40;47.40;;;;;;5070516;28;19912;-45
2024/03/12 03:00:43;;;;;;;;;;;22.40;47.20;;;;;;5072863;28;19912;-44
2024/03/12 03:03:09;;;;;;;;;;;22.40;47.40;;;;;;5065668;28;19913;-43
2024/03/12 03:05:35;;;;;;;;;;;22.50;47.50;;;;;;5067531;28;19920;-44
2024/03/12 03:08:01;;;;;;;;;;;22.50;47.50;;;;;;5066118;28;19909;-45
2024/03/12 03:10:27;;;;;;;;;;;22.40;47.30;;;;;;5071680;28;19912;-46
2024/03/12 03:12:52;;;;;;;;;;;22.40;47.30;;;;;;5069020;28;19916;-49
2024/03/12 03:15:20;;;;;;;;;;;22.40;47.30;;;;;;5073718;28;19913;-44
2024/03/12 03:17:48;;;;;;;;;;;22.40;47.30;;;;;;5065862;28;19931;-47
2024/03/12 03:20:14;;;;;;;;;;;22.40;47.50;;;;;;5073381;28;19944;-45
2024/03/12 03:22:44;;;;;;;;;;;22.40;47.60;;;;;;5066598;28;19909;-47
2024/03/12 03:25:14;;;;;;;;;;;22.40;47.70;;;;;;5074972;28;19916;-50
2024/03/12 03:27:40;;;;;;;;;;;22.40;47.80;;;;;;5074623;28;20011;-46
2024/03/12 03:30:12;;;;;;;;;;;22.40;47.80;;;;;;5065890;28;19982;-45
2024/03/12 03:32:39;;;;;;;;;;;22.30;47.90;;;;;;5078435;28;19912;-45
2024/03/12 03:35:05;;;;;;;;;;;22.30;48.00;;;;;;5068114;28;19978;-45
2024/03/12 03:37:35;;;;;;;;;;;22.40;48.30;;;;;;5065091;28;19909;-46
2024/03/12 03:40:04;;;;;;;;;;;22.40;48.50;;;;;;5071209;28;19913;-45
2024/03/12 03:42:31;;;;;;;;;;;22.40;48.60;;;;;;5063414;28;19925;-45
2024/03/12 03:44:57;;;;;;;;;;;22.30;48.80;;;;;;5074044;28;19931;-43
2024/03/12 03:47:23;;;;;;;;;;;22.30;49.00;;;;;;5069710;28;19912;-44
2024/03/12 03:49:52;;;;;;;;;;;22.30;49.30;;;;;;5066518;28;19951;-45
2024/03/12 03:52:18;;;;;;;;;;;22.30;49.70;;;;;;5070782;28;19990;-45
2024/03/12 03:54:43;;;;;;;;;;;22.30;49.90;;;;;;5078892;28;19912;-45
2024/03/12 03:57:09;;;;;;;;;;;22.30;50.10;;;;;;5070245;28;19979;-43
2024/03/12 03:59:35;;;;;;;;;;;22.30;50.30;;;;;;5076654;28;20234;-43
2024/03/12 04:02:01;;;;;;;;;;;22.30;50.60;;;;;;5075883;28;19915;-47
2024/03/12 04:04:27;;;;;;;;;;;22.20;50.90;;;;;;5075667;28;19928;-48
2024/03/12 04:06:53;;;;;;;;;;;22.30;51.40;;;;;;5072294;28;19916;-45
2024/03/12 04:09:20;;;;;;;;;;;22.30;51.70;;;;;;5067246;28;20368;-45
2024/03/12 04:11:48;;;;;;;;;;;22.30;52.50;;;;;;5073775;28;19909;-46
2024/03/12 04:14:15;;;;;;;;;;;22.30;53.20;;;;;;5071114;28;19919;-48
2024/03/12 04:16:40;;;;;;;;;;;22.30;53.40;;;;;;5073914;28;20357;-45
2024/03/12 04:19:06;;;;;;;;;;;22.20;53.60;;;;;;5064670;28;19944;-44
2024/03/12 04:21:32;;;;;;;;;;;22.30;53.80;;;;;;5072226;28;19964;-49
2024/03/12 04:23:58;;;;;;;;;;;22.30;54.60;;;;;;5078643;28;19928;-48
2024/03/12 04:26:24;;;;;;;;;;;22.30;54.20;;;;;;5080025;28;20265;-44
2024/03/12 04:28:50;;;;;;;;;;;22.30;54.20;;;;;;5064750;28;19927;-47
2024/03/12 04:31:20;;;;;;;;;;;22.20;54.10;;;;;;5071471;28;19915;-46
2024/03/12 04:33:46;;;;;;;;;;;22.20;54.20;;;;;;5064912;28;20273;-45
2024/03/12 04:36:13;;;;;;;;;;;22.20;54.40;;;;;;5075460;28;19912;-45
2024/03/12 04:38:40;;;;;;;;;;;22.20;54.50;;;;;;5071550;28;19916;-44
2024/03/12 04:41:05;;;;;;;;;;;22.20;54.60;;;;;;5068838;28;19912;-48
2024/03/12 04:43:31;;;;;;;;;;;22.20;54.90;;;;;;5068366;28;20136;-48
2024/03/12 04:45:57;;;;;;;;;;;22.20;55.20;;;;;;5082920;28;19923;-44
2024/03/12 04:48:23;;;;;;;;;;;22.20;55.70;;;;;;5069192;28;19970;-47
2024/03/12 04:50:49;;;;;;;;;;;22.10;56.10;;;;;;5073805;28;19975;-47
2024/03/12 04:53:15;;;;;;;;;;;22.20;67.80;;;;;;5076485;28;19916;-46
2024/03/12 04:55:41;;;;;;;;;;;22.20;70.40;;;;;;5071875;28;19935;-49
2024/03/12 04:58:07;;;;;;;;;;;22.20;71.70;;;;;;5066664;28;19908;-46
2024/03/12 05:00:33;;;;;;;;;;;22.20;72.10;;;;;;5071668;28;19923;-47
2024/03/12 05:03:00;;;;;;;;;;;22.10;71.60;;;;;;5068078;28;19920;-49
2024/03/12 05:05:25;;;;;;;;;;;22.10;70.80;;;;;;5074991;28;19917;-46
2024/03/12 05:07:52;;;;;;;;;;;22.10;70.40;;;;;;5079267;28;19919;-47
2024/03/12 05:10:20;;;;;;;;;;;22.20;70.40;;;;;;5070276;28;19912;-43
2024/03/12 05:12:46;;;;;;;;;;;22.20;69.50;;;;;;5062782;28;19908;-45
2024/03/12 05:15:12;;;;;;;;;;;22.20;67.40;;;;;;5070561;28;19913;-47
2024/03/12 05:17:42;;;;;;;;;;;22.10;64.30;;;;;;5070441;28;20003;-46
2024/03/12 05:20:14;;;;;;;;;;;22.10;62.70;;;;;;5074228;28;19920;-45
2024/03/12 05:22:40;;;;;;;;;;;22.10;61.80;;;;;;5068068;28;19908;-46
2024/03/12 05:25:18;;;;;;;;;;;22.10;60.70;;;;;;5077519;28;19921;-46
2024/03/12 05:27:45;;;;;;;;;;;22.20;59.70;;;;;;5068297;28;20128;-50
2024/03/12 05:30:14;;;;;;;;;;;22.20;59.10;;;;;;5070252;28;20069;-45
2024/03/12 05:32:43;;;;;;;;;;;22.10;58.50;;;;;;5070738;28;20357;-44
2024/03/12 05:35:33;;;;;;;;;;;22.10;57.80;;;;;;5073626;28;19923;-46
2024/03/12 05:38:02;;;;;;;;;;;22.10;57.60;;;;;;5070247;28;19912;-45
2024/03/12 05:40:46;;;;;;;;;;;22.10;57.10;;;;;;5064911;28;20369;-44
2024/03/12 05:48:41;;;;;;;;;;;22.00;56.00;;;;;;5071832;28;19962;-45
2024/03/12 05:51:08;;;;;;;;;;;22.00;55.80;;;;;;5072059;28;20438;-48
2024/03/12 05:53:37;;;;;;;;;;;22.10;56.80;;;;;;5068001;28;19987;-46
2024/03/12 05:56:04;;;;;;;;;;;22.10;57.00;;;;;;5072208;28;19942;-45
2024/03/12 05:58:31;;;;;;;;;;;22.10;56.10;;;;;;5067891;28;19917;-44
2024/03/12 06:00:57;;;;;;;;;;;22.10;55.40;;;;;;5073361;28;19912;-45
2024/03/12 06:03:23;;;;;;;;;;;22.00;55.10;;;;;;5071294;28;19908;-44
2024/03/12 06:05:49;;;;;;;;;;;22.00;55.30;;;;;;5069558;28;19955;-43
2024/03/12 06:08:15;;;;;;;;;;;22.00;54.70;;;;;;5076468;28;19912;-44
2024/03/12 06:10:41;;;;;;;;;;;22.10;54.30;;;;;;5071731;28;20015;-49
2024/03/12 06:13:07;;;;;;;;;;;22.10;54.30;;;;;;5070471;28;19909;-45
2024/03/12 06:15:33;;;;;;;;;;;22.10;54.60;;;;;;5070494;28;19913;-47
2024/03/12 06:18:02;;;;;;;;;;;22.00;54.30;;;;;;5071985;28;19916;-46
2024/03/12 06:20:28;;;;;;;;;;;22.00;54.70;;;;;;5071568;28;19965;-44
2024/03/12 06:22:54;;;;;;;;;;;22.00;54.10;;;;;;5067628;28;19978;-45
2024/03/12 06:25:21;;;;;;;;;;;22.00;53.70;;;;;;5071741;28;19920;-44
2024/03/12 06:27:48;;;;;;;;;;;22.10;53.40;;;;;;5072023;28;19908;-46
2024/03/12 06:30:15;;;;;;;;;;;22.10;52.80;;;;;;5069408;28;19913;-46
2024/03/12 06:32:41;;;;;;;;;;;22.00;52.60;;;;;;5074034;28;19970;-45
2024/03/12 06:35:07;;;;;;;;;;;22.00;52.40;;;;;;5074864;28;19931;-47
2024/03/12 06:37:33;;;;;;;;;;;21.90;52.10;;;;;;5073759;28;19956;-48
2024/03/12 06:39:59;;;;;;;;;;;22.00;52.10;;;;;;5079133;28;19913;-49
2024/03/12 06:42:45;;;;;;;;;;;22.00;51.90;;;;;;5066306;28;19924;-45
2024/03/12 06:45:11;;;;;;;;;;;22.00;51.90;;;;;;5070681;28;19927;-45
2024/03/12 06:47:40;;;;;;;;;;;22.00;51.70;;;;;;5070953;28;19962;-46
2024/03/12 06:50:08;;;;;;;;;;;22.00;51.40;;;;;;5067416;28;19983;-44
2024/03/12 06:52:34;;;;;;;;;;;21.90;51.40;;;;;;5069457;28;19908;-45
2024/03/12 06:55:12;;;;;;;;;;;22.00;51.00;;;;;;5070757;28;19948;-45
2024/03/12 06:57:39;;;;;;;;;;;22.00;51.10;;;;;;5066975;28;19960;-43
2024/03/12 07:00:09;;;;;;;;;;;22.00;51.10;;;;;;5071400;28;19917;-46
2024/03/12 07:02:38;;;;;;;;;;;22.00;50.80;;;;;;5072729;28;20400;-44
2024/03/12 07:05:06;;;;;;;;;;;21.90;50.70;;;;;;5068916;28;20011;-45
2024/03/12 07:07:32;;;;;;;;;;;21.90;50.60;;;;;;5067592;28;19919;-45
2024/03/12 07:10:02;;;;;;;;;;;22.00;50.80;;;;;;5068218;28;19928;-43
2024/03/12 07:12:31;;;;;;;;;;;22.00;50.70;;;;;;5070675;28;19963;-44
2024/03/12 07:14:57;;;;;;;;;;;22.00;50.60;;;;;;5066573;28;19942;-43
2024/03/12 07:17:23;;;;;;;;;;;22.00;50.60;;;;;;5074193;28;19916;-45
2024/03/12 07:19:49;;;;;;;;;;;21.90;50.40;;;;;;5071550;28;20011;-46
2024/03/12 07:22:17;;;;;;;;;;;21.90;50.30;;;;;;5076633;28;20377;-44
2024/03/12 07:24:43;;;;;;;;;;;21.90;50.20;;;;;;5076017;28;19927;-48
2024/03/12 07:27:10;;;;;;;;;;;22.00;50.20;;;;;;5072860;28;19962;-45
2024/03/12 07:29:37;;;;;;;;;;;22.00;50.00;;;;;;5066796;28;19913;-44
2024/03/12 07:32:03;;;;;;;;;;;21.90;49.90;;;;;;5073743;28;19917;-46
2024/03/12 07:34:32;;;;;;;;;;;21.90;49.50;;;;;;5069796;28;19920;-46
2024/03/12 07:36:59;;;;;;;;;;;21.90;49.60;;;;;;5073356;28;19912;-45
2024/03/12 07:39:25;;;;;;;;;;;21.90;49.60;;;;;;5069254;28;19913;-43
2024/03/12 07:41:52;;;;;;;;;;;22.00;49.50;;;;;;5071253;28;20388;-44
2024/03/12 07:44:19;;;;;;;;;;;22.00;49.30;;;;;;5071797;28;19921;-45
2024/03/12 07:46:45;;;;;;;;;;;21.90;49.10;;;;;;5077048;28;19923;-44
2024/03/12 07:49:11;;;;;;;;;;;21.90;48.90;;;;;;5082566;28;19920;-46
2024/03/12 07:51:37;;;;;;;;;;;21.80;49.00;;;;;;5076191;28;19908;-46
2024/03/12 07:54:06;;;;;;;;;;;21.90;49.00;;;;;;5079940;28;19920;-45
2024/03/12 07:56:32;;;;;;;;;;;21.90;48.80;;;;;;5071101;28;19999;-44
2024/03/12 07:58:58;;;;;;;;;;;21.90;48.70;;;;;;5074608;28;19909;-45
2024/03/12 08:01:27;;;;;;;;;;;21.90;48.70;;;;;;5083155;28;19912;-46
2024/03/12 08:03:53;;;;;;;;;;;21.80;48.70;;;;;;5080651;28;19921;-44
2024/03/12 08:06:20;;;;;;;;;;;21.80;48.70;;;;;;5077142;28;19920;-46
2024/03/12 08:08:48;;;;;;;;;;;21.90;48.60;;;;;;5073954;28;19976;-45
2024/03/12 08:11:14;;;;;;;;;;;21.90;48.60;;;;;;5075948;28;19912;-47
2024/03/12 08:13:40;;;;;;;;;;;21.90;48.60;;;;;;5080158;28;19908;-47
2024/03/12 08:16:07;;;;;;;;;;;21.90;48.50;;;;;;5077177;28;19912;-46
2024/03/12 08:18:33;;;;;;;;;;;21.80;48.40;;;;;;5074968;28;19912;-46
2024/03/12 08:21:02;;;;;;;;;;;21.80;48.40;;;;;;5078834;28;19920;-49
2024/03/12 08:23:29;;;;;;;;;;;21.80;48.40;;;;;;5077881;28;19919;-45
2024/03/12 08:25:55;;;;;;;;;;;21.90;48.90;;;;;;5068486;28;19920;-45
2024/03/12 08:28:21;;;;;;;;;;;21.90;48.20;;;;;;5081872;28;19948;-47
2024/03/12 08:30:47;;;;;;;;;;;21.90;48.00;;;;;;5080564;28;19920;-46
2024/03/12 08:33:13;;;;;;;;;;;21.80;47.90;;;;;;5081467;28;19908;-51
2024/03/12 08:35:39;;;;;;;;;;;21.80;47.80;;;;;;5081233;28;20451;-46
2024/03/12 08:38:06;;;;;;;;;;;21.80;47.80;;;;;;5074967;28;20296;-47
2024/03/12 08:40:32;;;;;;;;;;;21.90;47.80;;;;;;5080075;28;20384;-47
2024/03/12 08:42:58;;;;;;;;;;;21.90;47.60;;;;;;5083552;28;19921;-45
2024/03/12 08:45:26;;;;;;;;;;;21.90;47.50;;;;;;5081558;28;20395;-47
2024/03/12 08:47:52;;;;;;;;;;;21.80;47.20;;;;;;5081174;28;19908;-46
2024/03/12 08:50:18;;;;;;;;;;;21.80;47.00;;;;;;5074538;28;19981;-48
2024/03/12 08:52:44;;;;;;;;;;;21.80;47.10;;;;;;5080896;28;19935;-45
2024/03/12 08:55:10;;;;;;;;;;;21.90;46.70;;;;;;5081605;28;19983;-45
2024/03/12 08:57:36;;;;;;;;;;;21.90;46.70;;;;;;5080900;28;19934;-46
2024/03/12 09:00:05;;;;;;;;;;;21.90;46.60;;;;;;5080760;28;19909;-46
2024/03/12 09:02:31;;;;;;;;;;;21.80;46.50;;;;;;5071621;28;19955;-46
2024/03/12 09:04:57;;;;;;;;;;;21.80;46.40;;;;;;5078675;28;19920;-47
2024/03/12 09:07:22;;;;;;;;;;;21.80;46.60;;;;;;5069946;28;19913;-48
2024/03/12 09:09:48;;;;;;;;;;;21.80;46.50;;;;;;5074442;28;19913;-47
2024/03/12 09:12:14;;;;;;;;;;;21.90;46.50;;;;;;5079452;28;19943;-45
2024/03/12 09:14:40;;;;;;;;;;;21.80;46.50;;;;;;5078091;28;19913;-46
2024/03/12 09:17:07;;;;;;;;;;;21.80;46.40;;;;;;5067036;28;19916;-47
2024/03/12 09:19:33;;;;;;;;;;;21.80;46.40;;;;;;5081263;28;19974;-48
2024/03/12 09:22:00;;;;;;;;;;;21.80;46.50;;;;;;5080157;28;20357;-46
2024/03/12 09:24:26;;;;;;;;;;;21.90;46.50;;;;;;5086188;28;20304;-45
2024/03/12 09:26:53;;;;;;;;;;;21.90;46.50;;;;;;5066970;28;19909;-46
2024/03/12 09:29:20;;;;;;;;;;;21.90;46.50;;;;;;5069903;28;19909;-45
2024/03/12 09:31:46;;;;;;;;;;;21.80;46.40;;;;;;5068435;28;19990;-45
2024/03/12 09:34:12;;;;;;;;;;;21.80;46.30;;;;;;5083052;28;19924;-44
2024/03/12 09:36:38;;;;;;;;;;;21.80;46.40;;;;;;5066874;28;19913;-44
2024/03/12 09:39:10;;;;;;;;;;;21.80;46.40;;;;;;5066195;28;19912;-44
2024/03/12 09:41:38;;;;;;;;;;;21.90;46.50;;;;;;5077807;28;19912;-47
2024/03/12 09:44:05;;;;;;;;;;;21.90;46.40;;;;;;5063230;28;19924;-45
2024/03/12 09:46:31;;;;;;;;;;;21.80;46.40;;;;;;5073274;28;19916;-45
2024/03/12 09:48:57;;;;;;;;;;;21.80;46.40;;;;;;5073247;28;19912;-45
2024/03/12 09:51:23;;;;;;;;;;;21.80;46.40;;;;;;5071125;28;19918;-45
2024/03/12 09:53:50;;;;;;;;;;;21.80;46.40;;;;;;5074986;28;19909;-47
2024/03/12 09:56:17;;;;;;;;;;;21.90;46.40;;;;;;5062805;28;19990;-48
2024/03/12 09:58:44;;;;;;;;;;;21.80;46.40;;;;;;5067208;28;19916;-46
2024/03/12 10:01:12;;;;;;;;;;;21.80;46.30;;;;;;5065814;28;19912;-46
2024/03/12 10:03:38;;;;;;;;;;;21.80;46.40;;;;;;5065960;28;19909;-45
2024/03/12 10:06:05;;;;;;;;;;;21.80;46.50;;;;;;5063152;28;19912;-48
2024/03/12 10:08:31;;;;;;;;;;;21.80;46.40;;;;;;5073904;28;20407;-48
2024/03/12 10:10:57;;;;;;;;;;;21.90;46.40;;;;;;5077886;28;19913;-52
2024/03/12 10:13:23;;;;;;;;;;;21.80;46.30;;;;;;5078363;28;19913;-46
2024/03/12 10:15:56;;;;;;;;;;;21.80;46.30;;;;;;5081009;28;19912;-48
2024/03/12 10:18:22;;;;;;;;;;;21.80;46.40;;;;;;5079629;28;19913;-46
2024/03/12 10:20:54;;;;;;;;;;;21.80;46.40;;;;;;5082854;28;19983;-47
2024/03/12 10:23:21;;;;;;;;;;;21.80;46.40;;;;;;5081856;28;19909;-47
2024/03/12 10:25:48;;;;;;;;;;;21.80;46.30;;;;;;5069581;28;19917;-48
2024/03/12 10:28:22;;;;;;;;;;;21.80;46.30;;;;;;5077788;28;19982;-48
2024/03/12 10:30:48;;;;;;;;;;;21.80;46.30;;;;;;5076098;28;19915;-47
2024/03/12 10:33:17;;;;;;;;;;;21.70;46.30;;;;;;5074097;28;20011;-45
2024/03/12 10:35:46;;;;;;;;;;;21.80;46.40;;;;;;5081242;28;19908;-45
2024/03/12 10:38:13;;;;;;;;;;;21.80;46.40;;;;;;5083456;28;19912;-47
2024/03/12 10:40:39;;;;;;;;;;;21.80;46.40;;;;;;5070456;28;19913;-47
2024/03/12 10:43:08;;;;;;;;;;;21.80;46.30;;;;;;5079709;28;19963;-45
2024/03/12 10:45:34;;;;;;;;;;;21.80;46.30;;;;;;5079600;28;19966;-48
2024/03/12 10:48:00;;;;;;;;;;;21.70;46.30;;;;;;5075230;28;19912;-46
2024/03/12 10:50:26;;;;;;;;;;;21.80;46.40;;;;;;5078825;28;19920;-45
2024/03/12 10:52:55;;;;;;;;;;;21.80;46.40;;;;;;5080160;28;20416;-49
2024/03/12 10:55:21;;;;;;;;;;;21.80;46.40;;;;;;5072135;28;19912;-47
2024/03/12 10:57:54;;;;;;;;;;;21.80;46.30;;;;;;5076652;28;19912;-48
2024/03/12 11:00:26;;;;;;;;;;;21.80;46.30;;;;;;5084370;28;19939;-47
2024/03/12 11:02:53;;;;;;;;;;;21.70;46.30;;;;;;5082667;28;19909;-48
2024/03/12 11:05:20;;;;;;;;;;;21.70;46.40;;;;;;5082206;28;19916;-50
2024/03/12 11:07:46;;;;;;;;;;;21.80;46.40;;;;;;5082135;28;19916;-48
2024/03/12 11:10:12;;;;;;;;;;;21.80;46.30;;;;;;5078036;28;19920;-46
2024/03/12 11:12:39;;;;;;;;;;;21.80;46.30;;;;;;5082192;28;19912;-47
2024/03/12 11:15:08;;;;;;;;;;;21.70;46.20;;;;;;5083274;28;19913;-46
2024/03/12 11:17:34;;;;;;;;;;;21.70;46.30;;;;;;5085675;28;19912;-48
2024/03/12 11:20:00;;;;;;;;;;;21.70;46.40;;;;;;5083083;28;20337;-51
2024/03/12 11:22:27;;;;;;;;;;;21.70;46.40;;;;;;5083359;28;19912;-51
2024/03/12 11:24:52;;;;;;;;;;;21.80;46.30;;;;;;5075909;28;19970;-46
2024/03/12 11:27:25;;;;;;;;;;;21.80;46.30;;;;;;5082560;28;19916;-53
2024/03/12 11:30:42;;;;;;;;;;;21.80;46.30;;;;;;5078734;28;19916;-51
2024/03/12 11:32:50;;;;;;;;;;;21.70;46.20;;;;;;5067890;28;19920;-50
2024/03/12 11:35:21;;;;;;;;;;;21.70;46.30;;;;;;5083583;28;20003;-52
2024/03/12 11:37:47;;;;;;;;;;;21.80;46.40;;;;;;5081940;28;19908;-45
2024/03/12 11:40:29;;;;;;;;;;;21.80;46.30;;;;;;5073563;28;19908;-51
2024/03/12 11:42:55;;;;;;;;;;;21.80;46.30;;;;;;5081538;28;19924;-47
2024/03/12 11:45:34;;;;;;;;;;;21.70;46.20;;;;;;5082925;28;19924;-46
2024/03/12 11:48:00;;;;;;;;;;;21.70;46.20;;;;;;5081770;28;19920;-49
2024/03/12 11:50:30;;;;;;;;;;;21.70;46.40;;;;;;5081094;28;19943;-48
2024/03/12 11:53:22;;;;;;;;;;;21.70;46.30;;;;;;5068603;28;20716;-47
2024/03/12 11:55:52;;;;;;;;;;;21.80;46.30;;;;;;5081945;28;19912;-50
2024/03/12 11:58:20;;;;;;;;;;;21.70;46.20;;;;;;5076324;28;19965;-51
2024/03/12 12:00:51;;;;;;;;;;;21.70;46.20;;;;;;5081341;28;19924;-51
2024/03/12 12:03:17;;;;;;;;;;;21.70;46.20;;;;;;5082440;28;19976;-49
2024/03/12 12:05:47;;;;;;;;;;;21.70;46.30;;;;;;5081295;28;19955;-50
2024/03/12 12:08:16;;;;;;;;;;;21.70;46.20;;;;;;5082040;28;20340;-50
2024/03/12 12:10:44;;;;;;;;;;;21.80;46.30;;;;;;5076216;28;19912;-48
2024/03/12 12:13:14;;;;;;;;;;;21.80;46.30;;;;;;5082487;28;19912;-49
2024/03/12 12:15:41;;;;;;;;;;;21.70;46.20;;;;;;5097263;28;19916;-47
2024/03/12 12:18:08;;;;;;;;;;;21.70;46.20;;;;;;5065068;28;19935;-50
2024/03/12 12:20:34;;;;;;;;;;;21.70;46.30;;;;;;5071936;28;19919;-45
2024/03/12 12:23:00;;;;;;;;;;;21.80;46.30;;;;;;5081257;28;19913;-45
2024/03/12 12:25:28;;;;;;;;;;;21.80;46.20;;;;;;5076032;28;19920;-44
2024/03/12 12:27:54;;;;;;;;;;;21.80;46.20;;;;;;5082038;28;19976;-48
2024/03/12 12:30:23;;;;;;;;;;;21.70;46.10;;;;;;5080049;28;19966;-45
2024/03/12 12:32:50;;;;;;;;;;;21.70;46.20;;;;;;5078928;28;19908;-49
2024/03/12 12:35:19;;;;;;;;;;;21.70;46.30;;;;;;5076331;28;19908;-46
2024/03/12 12:37:45;;;;;;;;;;;21.70;46.20;;;;;;5073883;28;19946;-45
2024/03/12 12:40:16;;;;;;;;;;;21.80;46.20;;;;;;5074549;28;19935;-49
2024/03/12 12:42:43;;;;;;;;;;;21.70;46.20;;;;;;5069120;28;19987;-46
2024/03/12 12:45:10;;;;;;;;;;;21.70;46.10;;;;;;5081146;28;19950;-47
2024/03/12 12:47:36;;;;;;;;;;;21.70;46.10;;;;;;5073127;28;19915;-47
2024/03/12 12:50:03;;;;;;;;;;;21.70;46.20;;;;;;5080458;28;19912;-46
2024/03/12 12:52:29;;;;;;;;;;;21.70;46.20;;;;;;5074524;28;19908;-48
2024/03/12 12:54:58;;;;;;;;;;;21.80;46.20;;;;;;5080585;28;19916;-48
2024/03/12 12:57:27;;;;;;;;;;;21.70;46.10;;;;;;5076334;28;19908;-46
2024/03/12 12:59:55;;;;;;;;;;;21.70;46.10;;;;;;5072773;28;19909;-45
2024/03/12 13:02:22;;;;;;;;;;;21.70;46.10;;;;;;5074734;28;19908;-48
2024/03/12 13:04:58;;;;;;;;;;;21.70;46.20;;;;;;5074675;28;19920;-47
2024/03/12 13:07:28;;;;;;;;;;;21.80;46.20;;;;;;5074048;28;19979;-48
2024/03/12 13:09:54;;;;;;;;;;;21.80;46.20;;;;;;5074576;28;19920;-46
2024/03/12 13:12:20;;;;;;;;;;;21.80;46.20;;;;;;5081392;28;19908;-46
2024/03/12 13:14:47;;;;;;;;;;;21.70;46.10;;;;;;5080459;28;19908;-47
2024/03/12 13:17:14;;;;;;;;;;;21.70;46.10;;;;;;5074849;28;19915;-47
2024/03/12 13:19:41;;;;;;;;;;;21.80;46.20;;;;;;5083203;28;19914;-48
2024/03/12 13:22:07;;;;;;;;;;;21.80;46.20;;;;;;5074312;28;20029;-47
2024/03/12 13:24:33;;;;;;;;;;;21.80;46.20;;;;;;5074626;28;20632;-47
2024/03/12 13:26:59;;;;;;;;;;;21.80;46.20;;;;;;5073426;28;19912;-47
2024/03/12 13:29:26;;;;;;;;;;;21.80;46.20;;;;;;5086420;28;19942;-45
2024/03/12 13:31:53;;;;;;;;;;;21.70;46.10;;;;;;5073785;28;20914;-45
2024/03/12 13:34:19;;;;;;;;;;;21.80;46.20;;;;;;5081138;28;19908;-46
2024/03/12 13:36:47;;;;;;;;;;;21.80;46.30;;;;;;5080165;28;20658;-48
2024/03/12 13:39:14;;;;;;;;;;;21.90;46.30;;;;;;5077138;28;19919;-49
2024/03/12 13:41:41;;;;;;;;;;;21.90;46.30;;;;;;5078949;28;19904;-45
2024/03/12 13:44:07;;;;;;;;;;;21.80;46.20;;;;;;5071781;28;19931;-47
2024/03/12 13:46:33;;;;;;;;;;;21.80;46.30;;;;;;5067436;28;19923;-45
2024/03/12 13:49:11;;;;;;;;;;;21.80;46.30;;;;;;5071507;28;19943;-46
2024/03/12 13:51:37;;;;;;;;;;;21.90;46.40;;;;;;5096025;28;20269;-44
2024/03/12 13:54:07;;;;;;;;;;;21.90;46.40;;;;;;5076834;28;19920;-46
2024/03/12 13:56:36;;;;;;;;;;;21.90;46.40;;;;;;5075890;28;19948;-44
2024/03/12 13:59:05;;;;;;;;;;;21.90;46.50;;;;;;5078137;28;19912;-48
2024/03/12 14:01:31;;;;;;;;;;;21.90;46.50;;;;;;5075278;28;19964;-47
2024/03/12 14:03:57;;;;;;;;;;;21.90;46.50;;;;;;5076739;28;19912;-45
2024/03/12 14:06:23;;;;;;;;;;;21.90;46.60;;;;;;5073020;28;19919;-48
2024/03/12 14:08:50;;;;;;;;;;;21.90;46.60;;;;;;5072652;28;19916;-46
2024/03/12 14:11:18;;;;;;;;;;;21.90;46.50;;;;;;5077302;28;20396;-47
2024/03/12 14:13:45;;;;;;;;;;;21.90;46.40;;;;;;5073633;28;19919;-44
2024/03/12 14:16:11;;;;;;;;;;;21.90;46.30;;;;;;5070587;28;19916;-45
2024/03/12 14:18:37;;;;;;;;;;;21.90;46.20;;;;;;5072279;28;19917;-45
2024/03/12 14:21:04;;;;;;;;;;;21.90;46.10;;;;;;5073576;28;19948;-47
2024/03/12 14:23:30;;;;;;;;;;;21.80;46.00;;;;;;5070082;28;19916;-46
2024/03/12 14:25:56;;;;;;;;;;;21.90;46.00;;;;;;5074920;28;19924;-45